sensor_id;sensor_type;location;lat;lon;timestamp;P1;durP1;ratioP1;P2;durP2;ratioP2
22030;SDS011;11179;52.106;21.024;2022-12-29T00:02:13;16.03;;;5.80;;
22030;SDS011;11179;52.106;21.024;2022-12-29T00:04:39;14.63;;;6.57;;
22030;SDS011;11179;52.106;21.024;2022-12-29T00:07:05;14.67;;;7.10;;
22030;SDS011;11179;52.106;21.024;2022-12-29T00:09:31;14.83;;;6.40;;
22030;SDS011;11179;52.106;21.024;2022-12-29T00:11:57;18.70;;;6.60;;
22030;SDS011;11179;52.106;21.024;2022-12-29T00:14:23;14.47;;;7.00;;
22030;SDS011;11179;52.106;21.024;2022-12-29T00:17:07;18.30;;;6.37;;
22030;SDS011;11179;52.106;21.024;2022-12-29T00:19:32;15.13;;;6.93;;
22030;SDS011;11179;52.106;21.024;2022-12-29T00:22:16;13.87;;;6.40;;
22030;SDS011;11179;52.106;21.024;2022-12-29T00:25:00;14.40;;;6.40;;
22030;SDS011;11179;52.106;21.024;2022-12-29T00:27:45;17.47;;;7.83;;
22030;SDS011;11179;52.106;21.024;2022-12-29T00:30:29;18.20;;;7.63;;
22030;SDS011;11179;52.106;21.024;2022-12-29T00:33:14;14.10;;;6.57;;
22030;SDS011;11179;52.106;21.024;2022-12-29T00:36:02;12.10;;;5.60;;
22030;SDS011;11179;52.106;21.024;2022-12-29T00:38:35;14.90;;;6.73;;
22030;SDS011;11179;52.106;21.024;2022-12-29T00:41:20;14.57;;;6.50;;
22030;SDS011;11179;52.106;21.024;2022-12-29T00:44:04;13.52;;;6.05;;
22030;SDS011;11179;52.106;21.024;2022-12-29T00:46:30;16.30;;;5.87;;
22030;SDS011;11179;52.106;21.024;2022-12-29T00:48:56;14.80;;;5.13;;
22030;SDS011;11179;52.106;21.024;2022-12-29T00:51:40;13.90;;;6.17;;
22030;SDS011;11179;52.106;21.024;2022-12-29T00:54:05;14.10;;;6.73;;
22030;SDS011;11179;52.106;21.024;2022-12-29T00:56:31;16.00;;;6.20;;
22030;SDS011;11179;52.106;21.024;2022-12-29T00:58:59;13.10;;;6.10;;
22030;SDS011;11179;52.106;21.024;2022-12-29T01:01:31;13.07;;;5.30;;
22030;SDS011;11179;52.106;21.024;2022-12-29T01:03:57;16.20;;;5.47;;
22030;SDS011;11179;52.106;21.024;2022-12-29T01:06:23;11.00;;;5.50;;
22030;SDS011;11179;52.106;21.024;2022-12-29T01:08:48;12.77;;;5.23;;
22030;SDS011;11179;52.106;21.024;2022-12-29T01:11:37;12.97;;;5.60;;
22030;SDS011;11179;52.106;21.024;2022-12-29T01:14:04;9.97;;;5.07;;
22030;SDS011;11179;52.106;21.024;2022-12-29T01:16:30;13.63;;;6.10;;
22030;SDS011;11179;52.106;21.024;2022-12-29T01:18:55;14.93;;;6.40;;
22030;SDS011;11179;52.106;21.024;2022-12-29T01:21:20;12.90;;;4.87;;
22030;SDS011;11179;52.106;21.024;2022-12-29T01:23:46;9.30;;;5.30;;
22030;SDS011;11179;52.106;21.024;2022-12-29T01:26:14;13.13;;;4.87;;
22030;SDS011;11179;52.106;21.024;2022-12-29T01:28:41;10.97;;;5.13;;
22030;SDS011;11179;52.106;21.024;2022-12-29T01:31:07;12.13;;;5.67;;
22030;SDS011;11179;52.106;21.024;2022-12-29T01:33:33;10.57;;;5.50;;
22030;SDS011;11179;52.106;21.024;2022-12-29T01:36:02;12.27;;;5.20;;
22030;SDS011;11179;52.106;21.024;2022-12-29T01:38:32;12.90;;;5.10;;
22030;SDS011;11179;52.106;21.024;2022-12-29T01:40:58;14.90;;;5.30;;
22030;SDS011;11179;52.106;21.024;2022-12-29T01:46:13;14.70;;;4.63;;
22030;SDS011;11179;52.106;21.024;2022-12-29T01:48:41;12.60;;;4.40;;
22030;SDS011;11179;52.106;21.024;2022-12-29T01:51:07;12.67;;;5.20;;
22030;SDS011;11179;52.106;21.024;2022-12-29T01:53:33;11.00;;;5.00;;
22030;SDS011;11179;52.106;21.024;2022-12-29T01:56:01;11.50;;;4.70;;
22030;SDS011;11179;52.106;21.024;2022-12-29T01:58:32;9.57;;;4.17;;
22030;SDS011;11179;52.106;21.024;2022-12-29T02:01:01;13.27;;;5.10;;
22030;SDS011;11179;52.106;21.024;2022-12-29T02:03:27;14.20;;;6.23;;
22030;SDS011;11179;52.106;21.024;2022-12-29T02:06:08;10.00;;;4.50;;
22030;SDS011;11179;52.106;21.024;2022-12-29T02:08:34;11.37;;;5.10;;
22030;SDS011;11179;52.106;21.024;2022-12-29T02:11:00;10.50;;;4.77;;
22030;SDS011;11179;52.106;21.024;2022-12-29T02:13:26;8.83;;;4.07;;
22030;SDS011;11179;52.106;21.024;2022-12-29T02:29:48;10.10;;;4.17;;
22030;SDS011;11179;52.106;21.024;2022-12-29T02:32:37;11.47;;;4.30;;
22030;SDS011;11179;52.106;21.024;2022-12-29T02:35:30;10.27;;;4.40;;
22030;SDS011;11179;52.106;21.024;2022-12-29T02:38:46;10.87;;;4.30;;
22030;SDS011;11179;52.106;21.024;2022-12-29T02:44:01;9.63;;;4.35;;
22030;SDS011;11179;52.106;21.024;2022-12-29T02:46:34;10.53;;;4.80;;
22030;SDS011;11179;52.106;21.024;2022-12-29T02:49:13;9.00;;;4.17;;
22030;SDS011;11179;52.106;21.024;2022-12-29T02:54:25;11.90;;;4.97;;
22030;SDS011;11179;52.106;21.024;2022-12-29T03:00:08;12.60;;;5.30;;
22030;SDS011;11179;52.106;21.024;2022-12-29T03:05:37;9.90;;;4.67;;
22030;SDS011;11179;52.106;21.024;2022-12-29T03:11:13;9.20;;;4.23;;
22030;SDS011;11179;52.106;21.024;2022-12-29T03:14:02;10.43;;;4.10;;
22030;SDS011;11179;52.106;21.024;2022-12-29T03:16:53;10.77;;;4.20;;
22030;SDS011;11179;52.106;21.024;2022-12-29T03:19:32;10.40;;;4.00;;
22030;SDS011;11179;52.106;21.024;2022-12-29T03:22:04;14.63;;;6.37;;
22030;SDS011;11179;52.106;21.024;2022-12-29T03:24:52;10.70;;;4.53;;
22030;SDS011;11179;52.106;21.024;2022-12-29T03:27:24;11.57;;;4.20;;
22030;SDS011;11179;52.106;21.024;2022-12-29T03:29:55;9.97;;;4.00;;
22030;SDS011;11179;52.106;21.024;2022-12-29T03:32:25;12.07;;;4.93;;
22030;SDS011;11179;52.106;21.024;2022-12-29T03:34:56;10.20;;;4.57;;
22030;SDS011;11179;52.106;21.024;2022-12-29T03:37:24;10.87;;;4.40;;
22030;SDS011;11179;52.106;21.024;2022-12-29T03:39:53;11.43;;;4.33;;
22030;SDS011;11179;52.106;21.024;2022-12-29T03:42:20;11.63;;;5.10;;
22030;SDS011;11179;52.106;21.024;2022-12-29T03:44:48;11.30;;;4.80;;
22030;SDS011;11179;52.106;21.024;2022-12-29T03:47:20;12.50;;;4.73;;
22030;SDS011;11179;52.106;21.024;2022-12-29T03:49:45;10.37;;;4.47;;
22030;SDS011;11179;52.106;21.024;2022-12-29T03:52:11;12.20;;;5.00;;
22030;SDS011;11179;52.106;21.024;2022-12-29T03:54:36;12.83;;;5.20;;
22030;SDS011;11179;52.106;21.024;2022-12-29T03:57:02;13.00;;;5.10;;
22030;SDS011;11179;52.106;21.024;2022-12-29T03:59:27;12.30;;;5.40;;
22030;SDS011;11179;52.106;21.024;2022-12-29T04:01:52;16.63;;;6.10;;
22030;SDS011;11179;52.106;21.024;2022-12-29T04:04:18;15.10;;;6.23;;
22030;SDS011;11179;52.106;21.024;2022-12-29T04:06:43;10.77;;;5.07;;
22030;SDS011;11179;52.106;21.024;2022-12-29T04:09:09;13.07;;;6.20;;
22030;SDS011;11179;52.106;21.024;2022-12-29T04:11:34;12.00;;;6.43;;
22030;SDS011;11179;52.106;21.024;2022-12-29T04:14:00;12.43;;;5.40;;
22030;SDS011;11179;52.106;21.024;2022-12-29T04:16:25;16.20;;;7.13;;
22030;SDS011;11179;52.106;21.024;2022-12-29T04:18:50;15.90;;;6.70;;
22030;SDS011;11179;52.106;21.024;2022-12-29T04:21:16;17.60;;;5.90;;
22030;SDS011;11179;52.106;21.024;2022-12-29T04:23:41;16.10;;;6.43;;
22030;SDS011;11179;52.106;21.024;2022-12-29T04:26:07;13.70;;;6.60;;
22030;SDS011;11179;52.106;21.024;2022-12-29T04:28:33;14.93;;;6.30;;
22030;SDS011;11179;52.106;21.024;2022-12-29T04:30:59;16.43;;;6.77;;
22030;SDS011;11179;52.106;21.024;2022-12-29T04:33:25;15.27;;;6.67;;
22030;SDS011;11179;52.106;21.024;2022-12-29T04:35:50;17.50;;;6.80;;
22030;SDS011;11179;52.106;21.024;2022-12-29T04:38:19;14.93;;;6.60;;
22030;SDS011;11179;52.106;21.024;2022-12-29T04:40:45;15.00;;;6.80;;
22030;SDS011;11179;52.106;21.024;2022-12-29T04:43:11;17.13;;;7.20;;
22030;SDS011;11179;52.106;21.024;2022-12-29T04:45:37;16.20;;;7.00;;
22030;SDS011;11179;52.106;21.024;2022-12-29T04:48:02;15.17;;;6.43;;
22030;SDS011;11179;52.106;21.024;2022-12-29T04:50:28;19.53;;;9.13;;
22030;SDS011;11179;52.106;21.024;2022-12-29T04:52:53;17.30;;;6.30;;
22030;SDS011;11179;52.106;21.024;2022-12-29T04:55:19;20.87;;;8.20;;
22030;SDS011;11179;52.106;21.024;2022-12-29T04:57:44;15.90;;;6.33;;
22030;SDS011;11179;52.106;21.024;2022-12-29T05:00:10;20.80;;;7.50;;
22030;SDS011;11179;52.106;21.024;2022-12-29T05:02:36;15.53;;;6.93;;
22030;SDS011;11179;52.106;21.024;2022-12-29T05:05:02;19.67;;;7.07;;
22030;SDS011;11179;52.106;21.024;2022-12-29T05:07:28;15.10;;;7.03;;
22030;SDS011;11179;52.106;21.024;2022-12-29T05:09:53;19.73;;;7.17;;
22030;SDS011;11179;52.106;21.024;2022-12-29T05:12:18;16.50;;;6.27;;
22030;SDS011;11179;52.106;21.024;2022-12-29T05:14:44;17.17;;;6.60;;
22030;SDS011;11179;52.106;21.024;2022-12-29T05:17:09;14.80;;;6.30;;
22030;SDS011;11179;52.106;21.024;2022-12-29T05:19:34;15.80;;;7.40;;
22030;SDS011;11179;52.106;21.024;2022-12-29T05:21:59;16.17;;;6.50;;
22030;SDS011;11179;52.106;21.024;2022-12-29T05:24:25;17.07;;;7.33;;
22030;SDS011;11179;52.106;21.024;2022-12-29T05:26:50;20.53;;;7.47;;
22030;SDS011;11179;52.106;21.024;2022-12-29T05:29:15;22.37;;;7.13;;
22030;SDS011;11179;52.106;21.024;2022-12-29T05:31:41;18.63;;;7.53;;
22030;SDS011;11179;52.106;21.024;2022-12-29T05:34:06;22.70;;;6.77;;
22030;SDS011;11179;52.106;21.024;2022-12-29T05:36:31;22.13;;;7.60;;
22030;SDS011;11179;52.106;21.024;2022-12-29T05:38:57;16.17;;;7.40;;
22030;SDS011;11179;52.106;21.024;2022-12-29T05:41:22;16.80;;;7.10;;
22030;SDS011;11179;52.106;21.024;2022-12-29T05:43:47;18.50;;;7.70;;
22030;SDS011;11179;52.106;21.024;2022-12-29T05:46:12;13.80;;;5.90;;
22030;SDS011;11179;52.106;21.024;2022-12-29T05:48:38;17.77;;;6.50;;
22030;SDS011;11179;52.106;21.024;2022-12-29T05:51:03;17.60;;;7.40;;
22030;SDS011;11179;52.106;21.024;2022-12-29T05:53:28;17.03;;;7.50;;
22030;SDS011;11179;52.106;21.024;2022-12-29T05:55:54;12.90;;;5.90;;
22030;SDS011;11179;52.106;21.024;2022-12-29T05:58:19;15.03;;;6.60;;
22030;SDS011;11179;52.106;21.024;2022-12-29T06:00:44;17.97;;;5.53;;
22030;SDS011;11179;52.106;21.024;2022-12-29T06:03:10;22.03;;;6.63;;
22030;SDS011;11179;52.106;21.024;2022-12-29T06:05:36;12.70;;;5.60;;
22030;SDS011;11179;52.106;21.024;2022-12-29T06:08:01;13.67;;;6.30;;
22030;SDS011;11179;52.106;21.024;2022-12-29T06:10:27;14.03;;;6.63;;
22030;SDS011;11179;52.106;21.024;2022-12-29T06:12:52;15.27;;;5.67;;
22030;SDS011;11179;52.106;21.024;2022-12-29T06:15:17;11.00;;;5.37;;
22030;SDS011;11179;52.106;21.024;2022-12-29T06:17:43;13.90;;;5.87;;
22030;SDS011;11179;52.106;21.024;2022-12-29T06:20:08;16.33;;;6.23;;
22030;SDS011;11179;52.106;21.024;2022-12-29T06:22:38;11.87;;;5.80;;
22030;SDS011;11179;52.106;21.024;2022-12-29T06:25:04;13.20;;;6.27;;
22030;SDS011;11179;52.106;21.024;2022-12-29T06:27:30;16.23;;;7.20;;
22030;SDS011;11179;52.106;21.024;2022-12-29T06:29:56;16.30;;;6.37;;
22030;SDS011;11179;52.106;21.024;2022-12-29T06:32:21;12.90;;;5.87;;
22030;SDS011;11179;52.106;21.024;2022-12-29T06:34:46;16.30;;;5.87;;
22030;SDS011;11179;52.106;21.024;2022-12-29T06:37:27;13.90;;;5.13;;
22030;SDS011;11179;52.106;21.024;2022-12-29T06:39:53;16.77;;;6.23;;
22030;SDS011;11179;52.106;21.024;2022-12-29T06:42:18;17.53;;;6.37;;
22030;SDS011;11179;52.106;21.024;2022-12-29T06:44:43;16.03;;;6.20;;
22030;SDS011;11179;52.106;21.024;2022-12-29T06:47:09;13.07;;;5.33;;
22030;SDS011;11179;52.106;21.024;2022-12-29T06:49:35;18.23;;;6.43;;
22030;SDS011;11179;52.106;21.024;2022-12-29T06:52:00;16.70;;;6.63;;
22030;SDS011;11179;52.106;21.024;2022-12-29T06:54:29;12.07;;;5.60;;
22030;SDS011;11179;52.106;21.024;2022-12-29T06:56:55;13.70;;;6.33;;
22030;SDS011;11179;52.106;21.024;2022-12-29T06:59:20;14.43;;;6.30;;
22030;SDS011;11179;52.106;21.024;2022-12-29T07:01:45;14.40;;;5.57;;
22030;SDS011;11179;52.106;21.024;2022-12-29T07:04:11;11.60;;;5.60;;
22030;SDS011;11179;52.106;21.024;2022-12-29T07:06:36;12.57;;;5.77;;
22030;SDS011;11179;52.106;21.024;2022-12-29T07:09:01;13.47;;;5.87;;
22030;SDS011;11179;52.106;21.024;2022-12-29T07:11:27;13.40;;;6.63;;
22030;SDS011;11179;52.106;21.024;2022-12-29T07:13:52;18.60;;;7.00;;
22030;SDS011;11179;52.106;21.024;2022-12-29T07:16:17;14.03;;;6.13;;
22030;SDS011;11179;52.106;21.024;2022-12-29T07:18:43;18.70;;;6.67;;
22030;SDS011;11179;52.106;21.024;2022-12-29T07:21:08;14.40;;;5.60;;
22030;SDS011;11179;52.106;21.024;2022-12-29T07:23:34;14.20;;;5.30;;
22030;SDS011;11179;52.106;21.024;2022-12-29T07:26:00;11.23;;;5.27;;
22030;SDS011;11179;52.106;21.024;2022-12-29T07:28:27;12.83;;;5.50;;
22030;SDS011;11179;52.106;21.024;2022-12-29T07:30:52;16.47;;;6.10;;
22030;SDS011;11179;52.106;21.024;2022-12-29T07:33:17;11.80;;;5.23;;
22030;SDS011;11179;52.106;21.024;2022-12-29T07:35:42;16.67;;;5.60;;
22030;SDS011;11179;52.106;21.024;2022-12-29T07:38:08;10.43;;;5.23;;
22030;SDS011;11179;52.106;21.024;2022-12-29T07:40:33;11.80;;;5.13;;
22030;SDS011;11179;52.106;21.024;2022-12-29T07:42:58;16.87;;;5.83;;
22030;SDS011;11179;52.106;21.024;2022-12-29T07:45:23;12.07;;;5.47;;
22030;SDS011;11179;52.106;21.024;2022-12-29T07:47:49;12.40;;;5.70;;
22030;SDS011;11179;52.106;21.024;2022-12-29T07:50:15;10.73;;;5.30;;
22030;SDS011;11179;52.106;21.024;2022-12-29T07:52:40;11.60;;;5.40;;
22030;SDS011;11179;52.106;21.024;2022-12-29T07:55:06;14.57;;;5.80;;
22030;SDS011;11179;52.106;21.024;2022-12-29T07:57:31;13.10;;;5.33;;
22030;SDS011;11179;52.106;21.024;2022-12-29T08:00:00;9.90;;;5.13;;
22030;SDS011;11179;52.106;21.024;2022-12-29T08:02:25;16.97;;;5.13;;
22030;SDS011;11179;52.106;21.024;2022-12-29T08:04:51;12.03;;;5.20;;
22030;SDS011;11179;52.106;21.024;2022-12-29T08:07:16;12.87;;;5.20;;
22030;SDS011;11179;52.106;21.024;2022-12-29T08:09:41;14.47;;;5.20;;
22030;SDS011;11179;52.106;21.024;2022-12-29T08:12:08;14.93;;;5.60;;
22030;SDS011;11179;52.106;21.024;2022-12-29T08:14:35;11.40;;;5.10;;
22030;SDS011;11179;52.106;21.024;2022-12-29T08:17:00;19.90;;;5.33;;
22030;SDS011;11179;52.106;21.024;2022-12-29T08:19:26;10.47;;;4.50;;
22030;SDS011;11179;52.106;21.024;2022-12-29T08:21:52;14.70;;;5.00;;
22030;SDS011;11179;52.106;21.024;2022-12-29T08:24:17;12.13;;;5.63;;
22030;SDS011;11179;52.106;21.024;2022-12-29T08:26:43;12.27;;;5.47;;
22030;SDS011;11179;52.106;21.024;2022-12-29T08:29:08;13.80;;;5.33;;
22030;SDS011;11179;52.106;21.024;2022-12-29T08:31:33;11.10;;;4.90;;
22030;SDS011;11179;52.106;21.024;2022-12-29T08:33:59;11.50;;;4.80;;
22030;SDS011;11179;52.106;21.024;2022-12-29T08:36:24;15.73;;;5.23;;
22030;SDS011;11179;52.106;21.024;2022-12-29T08:38:50;12.60;;;5.20;;
22030;SDS011;11179;52.106;21.024;2022-12-29T08:41:15;12.40;;;5.83;;
22030;SDS011;11179;52.106;21.024;2022-12-29T08:43:40;21.60;;;5.37;;
22030;SDS011;11179;52.106;21.024;2022-12-29T08:46:06;12.63;;;5.47;;
22030;SDS011;11179;52.106;21.024;2022-12-29T08:48:31;15.00;;;5.80;;
22030;SDS011;11179;52.106;21.024;2022-12-29T08:50:57;16.00;;;6.30;;
22030;SDS011;11179;52.106;21.024;2022-12-29T08:53:22;10.90;;;4.60;;
22030;SDS011;11179;52.106;21.024;2022-12-29T08:55:53;14.10;;;6.10;;
22030;SDS011;11179;52.106;21.024;2022-12-29T08:58:21;10.20;;;4.63;;
22030;SDS011;11179;52.106;21.024;2022-12-29T09:00:46;11.40;;;4.90;;
22030;SDS011;11179;52.106;21.024;2022-12-29T09:03:12;10.47;;;5.13;;
22030;SDS011;11179;52.106;21.024;2022-12-29T09:05:37;13.97;;;4.83;;
22030;SDS011;11179;52.106;21.024;2022-12-29T09:08:02;10.10;;;4.63;;
22030;SDS011;11179;52.106;21.024;2022-12-29T09:10:29;12.07;;;5.27;;
22030;SDS011;11179;52.106;21.024;2022-12-29T09:12:55;14.07;;;5.00;;
22030;SDS011;11179;52.106;21.024;2022-12-29T09:15:20;12.83;;;5.10;;
22030;SDS011;11179;52.106;21.024;2022-12-29T09:17:48;12.03;;;6.10;;
22030;SDS011;11179;52.106;21.024;2022-12-29T09:20:17;18.83;;;5.90;;
22030;SDS011;11179;52.106;21.024;2022-12-29T09:22:44;13.50;;;5.43;;
22030;SDS011;11179;52.106;21.024;2022-12-29T09:25:10;13.37;;;6.23;;
22030;SDS011;11179;52.106;21.024;2022-12-29T09:27:36;12.10;;;4.90;;
22030;SDS011;11179;52.106;21.024;2022-12-29T09:30:05;12.03;;;5.10;;
22030;SDS011;11179;52.106;21.024;2022-12-29T09:32:32;17.00;;;6.53;;
22030;SDS011;11179;52.106;21.024;2022-12-29T09:34:58;12.90;;;4.73;;
22030;SDS011;11179;52.106;21.024;2022-12-29T09:37:23;11.97;;;5.43;;
22030;SDS011;11179;52.106;21.024;2022-12-29T09:39:49;10.87;;;5.37;;
22030;SDS011;11179;52.106;21.024;2022-12-29T09:45:29;19.70;;;6.00;;
22030;SDS011;11179;52.106;21.024;2022-12-29T09:48:18;15.30;;;5.10;;
22030;SDS011;11179;52.106;21.024;2022-12-29T09:50:50;14.60;;;5.60;;
22030;SDS011;11179;52.106;21.024;2022-12-29T09:53:21;12.83;;;5.30;;
22030;SDS011;11179;52.106;21.024;2022-12-29T09:55:55;10.90;;;4.57;;
22030;SDS011;11179;52.106;21.024;2022-12-29T09:58:24;11.17;;;4.63;;
22030;SDS011;11179;52.106;21.024;2022-12-29T10:01:17;16.60;;;5.97;;
22030;SDS011;11179;52.106;21.024;2022-12-29T10:03:47;15.57;;;6.07;;
22030;SDS011;11179;52.106;21.024;2022-12-29T10:06:22;10.80;;;5.23;;
22030;SDS011;11179;52.106;21.024;2022-12-29T10:14:52;16.60;;;5.77;;
22030;SDS011;11179;52.106;21.024;2022-12-29T10:25:43;14.70;;;6.47;;
22030;SDS011;11179;52.106;21.024;2022-12-29T10:28:17;13.33;;;6.93;;
22030;SDS011;11179;52.106;21.024;2022-12-29T10:30:46;17.03;;;6.83;;
22030;SDS011;11179;52.106;21.024;2022-12-29T10:33:15;17.70;;;6.23;;
22030;SDS011;11179;52.106;21.024;2022-12-29T10:35:44;11.70;;;5.47;;
22030;SDS011;11179;52.106;21.024;2022-12-29T10:38:19;17.43;;;7.17;;
22030;SDS011;11179;52.106;21.024;2022-12-29T10:40:56;12.40;;;5.80;;
22030;SDS011;11179;52.106;21.024;2022-12-29T10:43:29;17.00;;;6.70;;
22030;SDS011;11179;52.106;21.024;2022-12-29T10:46:01;14.93;;;6.30;;
22030;SDS011;11179;52.106;21.024;2022-12-29T10:48:33;21.63;;;5.40;;
22030;SDS011;11179;52.106;21.024;2022-12-29T10:51:00;14.83;;;6.10;;
22030;SDS011;11179;52.106;21.024;2022-12-29T10:53:38;14.27;;;6.73;;
22030;SDS011;11179;52.106;21.024;2022-12-29T10:56:15;11.50;;;5.63;;
22030;SDS011;11179;52.106;21.024;2022-12-29T10:58:48;11.63;;;5.80;;
22030;SDS011;11179;52.106;21.024;2022-12-29T11:01:15;14.93;;;6.37;;
22030;SDS011;11179;52.106;21.024;2022-12-29T11:03:59;12.23;;;5.00;;
22030;SDS011;11179;52.106;21.024;2022-12-29T11:06:48;14.90;;;5.90;;
22030;SDS011;11179;52.106;21.024;2022-12-29T11:09:15;11.33;;;5.03;;
22030;SDS011;11179;52.106;21.024;2022-12-29T11:11:46;11.53;;;5.67;;
22030;SDS011;11179;52.106;21.024;2022-12-29T11:14:19;11.93;;;5.47;;
22030;SDS011;11179;52.106;21.024;2022-12-29T11:16:57;13.27;;;6.33;;
22030;SDS011;11179;52.106;21.024;2022-12-29T11:19:27;11.77;;;5.43;;
22030;SDS011;11179;52.106;21.024;2022-12-29T11:21:56;13.50;;;5.57;;
22030;SDS011;11179;52.106;21.024;2022-12-29T11:24:45;11.53;;;5.70;;
22030;SDS011;11179;52.106;21.024;2022-12-29T11:27:19;14.67;;;6.47;;
22030;SDS011;11179;52.106;21.024;2022-12-29T11:29:49;13.70;;;6.47;;
22030;SDS011;11179;52.106;21.024;2022-12-29T11:32:23;11.10;;;5.37;;
22030;SDS011;11179;52.106;21.024;2022-12-29T11:34:50;12.40;;;5.07;;
22030;SDS011;11179;52.106;21.024;2022-12-29T11:37:19;18.90;;;6.43;;
22030;SDS011;11179;52.106;21.024;2022-12-29T11:42:54;14.70;;;6.43;;
22030;SDS011;11179;52.106;21.024;2022-12-29T11:45:25;16.23;;;7.20;;
22030;SDS011;11179;52.106;21.024;2022-12-29T11:48:13;17.80;;;7.37;;
22030;SDS011;11179;52.106;21.024;2022-12-29T11:50:48;19.30;;;7.07;;
22030;SDS011;11179;52.106;21.024;2022-12-29T11:56:02;13.63;;;5.47;;
22030;SDS011;11179;52.106;21.024;2022-12-29T11:58:33;14.87;;;6.30;;
22030;SDS011;11179;52.106;21.024;2022-12-29T12:01:15;14.33;;;6.10;;
22030;SDS011;11179;52.106;21.024;2022-12-29T12:03:47;13.03;;;5.77;;
22030;SDS011;11179;52.106;21.024;2022-12-29T12:06:19;13.10;;;6.47;;
22030;SDS011;11179;52.106;21.024;2022-12-29T12:09:10;14.10;;;6.73;;
22030;SDS011;11179;52.106;21.024;2022-12-29T12:11:39;12.53;;;6.10;;
22030;SDS011;11179;52.106;21.024;2022-12-29T12:14:26;11.47;;;5.50;;
22030;SDS011;11179;52.106;21.024;2022-12-29T12:16:59;14.17;;;6.57;;
22030;SDS011;11179;52.106;21.024;2022-12-29T12:19:33;16.87;;;7.37;;
22030;SDS011;11179;52.106;21.024;2022-12-29T12:22:05;15.23;;;6.07;;
22030;SDS011;11179;52.106;21.024;2022-12-29T12:24:42;11.83;;;5.77;;
22030;SDS011;11179;52.106;21.024;2022-12-29T12:27:26;13.50;;;6.37;;
22030;SDS011;11179;52.106;21.024;2022-12-29T12:32:25;11.10;;;5.80;;
22030;SDS011;11179;52.106;21.024;2022-12-29T12:34:55;11.30;;;5.47;;
22030;SDS011;11179;52.106;21.024;2022-12-29T12:37:37;18.63;;;6.70;;
22030;SDS011;11179;52.106;21.024;2022-12-29T12:40:14;16.50;;;7.20;;
22030;SDS011;11179;52.106;21.024;2022-12-29T12:58:52;16.67;;;6.67;;
22030;SDS011;11179;52.106;21.024;2022-12-29T13:04:00;13.23;;;6.30;;
22030;SDS011;11179;52.106;21.024;2022-12-29T13:09:48;12.40;;;5.83;;
22030;SDS011;11179;52.106;21.024;2022-12-29T13:12:22;12.80;;;5.47;;
22030;SDS011;11179;52.106;21.024;2022-12-29T13:17:43;17.23;;;6.30;;
22030;SDS011;11179;52.106;21.024;2022-12-29T13:22:53;14.60;;;7.50;;
22030;SDS011;11179;52.106;21.024;2022-12-29T13:30:32;13.47;;;6.20;;
22030;SDS011;11179;52.106;21.024;2022-12-29T13:33:10;13.70;;;5.93;;
22030;SDS011;11179;52.106;21.024;2022-12-29T13:35:54;23.23;;;6.03;;
22030;SDS011;11179;52.106;21.024;2022-12-29T13:38:29;12.23;;;5.70;;
22030;SDS011;11179;52.106;21.024;2022-12-29T13:41:00;18.23;;;6.13;;
22030;SDS011;11179;52.106;21.024;2022-12-29T13:43:30;14.53;;;7.13;;
22030;SDS011;11179;52.106;21.024;2022-12-29T13:45:59;15.40;;;6.67;;
22030;SDS011;11179;52.106;21.024;2022-12-29T13:51:19;16.53;;;7.27;;
22030;SDS011;11179;52.106;21.024;2022-12-29T13:53:55;14.33;;;6.17;;
22030;SDS011;11179;52.106;21.024;2022-12-29T13:56:49;15.73;;;6.20;;
22030;SDS011;11179;52.106;21.024;2022-12-29T13:59:24;13.37;;;6.37;;
22030;SDS011;11179;52.106;21.024;2022-12-29T14:05:26;12.80;;;6.17;;
22030;SDS011;11179;52.106;21.024;2022-12-29T14:08:01;16.60;;;6.57;;
22030;SDS011;11179;52.106;21.024;2022-12-29T14:13:12;15.00;;;6.37;;
22030;SDS011;11179;52.106;21.024;2022-12-29T14:15:39;16.43;;;7.30;;
22030;SDS011;11179;52.106;21.024;2022-12-29T14:18:15;14.93;;;6.90;;
22030;SDS011;11179;52.106;21.024;2022-12-29T14:20:57;17.70;;;7.63;;
22030;SDS011;11179;52.106;21.024;2022-12-29T14:23:45;19.00;;;7.77;;
22030;SDS011;11179;52.106;21.024;2022-12-29T14:28:55;17.27;;;7.27;;
22030;SDS011;11179;52.106;21.024;2022-12-29T14:36:37;16.80;;;7.40;;
22030;SDS011;11179;52.106;21.024;2022-12-29T14:44:34;25.63;;;7.97;;
22030;SDS011;11179;52.106;21.024;2022-12-29T14:47:11;17.37;;;7.40;;
22030;SDS011;11179;52.106;21.024;2022-12-29T14:49:44;17.27;;;7.13;;
22030;SDS011;11179;52.106;21.024;2022-12-29T14:52:20;16.03;;;7.10;;
22030;SDS011;11179;52.106;21.024;2022-12-29T14:54:53;17.10;;;6.70;;
22030;SDS011;11179;52.106;21.024;2022-12-29T14:57:44;16.80;;;6.30;;
22030;SDS011;11179;52.106;21.024;2022-12-29T15:00:19;19.23;;;7.60;;
22030;SDS011;11179;52.106;21.024;2022-12-29T15:02:49;15.70;;;6.60;;
22030;SDS011;11179;52.106;21.024;2022-12-29T15:06:09;15.23;;;7.20;;
22030;SDS011;11179;52.106;21.024;2022-12-29T15:08:18;15.33;;;6.67;;
22030;SDS011;11179;52.106;21.024;2022-12-29T15:10:51;14.53;;;7.77;;
22030;SDS011;11179;52.106;21.024;2022-12-29T15:13:22;14.93;;;7.10;;
22030;SDS011;11179;52.106;21.024;2022-12-29T15:15:50;16.40;;;6.47;;
22030;SDS011;11179;52.106;21.024;2022-12-29T15:18:24;17.87;;;6.90;;
22030;SDS011;11179;52.106;21.024;2022-12-29T15:20:52;14.47;;;6.77;;
22030;SDS011;11179;52.106;21.024;2022-12-29T15:23:19;16.80;;;6.53;;
22030;SDS011;11179;52.106;21.024;2022-12-29T15:25:46;16.33;;;6.80;;
22030;SDS011;11179;52.106;21.024;2022-12-29T15:28:15;20.47;;;7.73;;
22030;SDS011;11179;52.106;21.024;2022-12-29T15:30:51;14.70;;;6.70;;
22030;SDS011;11179;52.106;21.024;2022-12-29T15:33:27;16.63;;;6.87;;
22030;SDS011;11179;52.106;21.024;2022-12-29T15:35:54;18.17;;;7.30;;
22030;SDS011;11179;52.106;21.024;2022-12-29T15:38:25;17.73;;;7.10;;
22030;SDS011;11179;52.106;21.024;2022-12-29T15:41:19;30.83;;;7.10;;
22030;SDS011;11179;52.106;21.024;2022-12-29T15:43:49;16.17;;;6.93;;
22030;SDS011;11179;52.106;21.024;2022-12-29T15:46:17;16.00;;;6.90;;
22030;SDS011;11179;52.106;21.024;2022-12-29T15:48:43;16.90;;;7.50;;
22030;SDS011;11179;52.106;21.024;2022-12-29T15:51:22;18.37;;;7.30;;
22030;SDS011;11179;52.106;21.024;2022-12-29T15:53:57;17.27;;;6.97;;
22030;SDS011;11179;52.106;21.024;2022-12-29T15:56:23;17.17;;;7.10;;
22030;SDS011;11179;52.106;21.024;2022-12-29T15:58:49;16.63;;;7.20;;
22030;SDS011;11179;52.106;21.024;2022-12-29T16:01:17;14.57;;;7.50;;
22030;SDS011;11179;52.106;21.024;2022-12-29T16:03:44;16.07;;;6.60;;
22030;SDS011;11179;52.106;21.024;2022-12-29T16:06:23;13.93;;;6.80;;
22030;SDS011;11179;52.106;21.024;2022-12-29T16:08:56;17.47;;;7.40;;
22030;SDS011;11179;52.106;21.024;2022-12-29T16:14:01;16.73;;;7.57;;
22030;SDS011;11179;52.106;21.024;2022-12-29T16:16:38;17.60;;;7.50;;
22030;SDS011;11179;52.106;21.024;2022-12-29T16:19:11;14.37;;;5.40;;
22030;SDS011;11179;52.106;21.024;2022-12-29T16:21:43;12.30;;;5.97;;
22030;SDS011;11179;52.106;21.024;2022-12-29T16:24:12;17.50;;;6.20;;
22030;SDS011;11179;52.106;21.024;2022-12-29T16:26:45;16.60;;;6.80;;
22030;SDS011;11179;52.106;21.024;2022-12-29T16:29:13;16.17;;;8.37;;
22030;SDS011;11179;52.106;21.024;2022-12-29T16:31:50;16.97;;;7.53;;
22030;SDS011;11179;52.106;21.024;2022-12-29T16:37:41;16.73;;;6.33;;